Main page
METAR-TAF:

METAR-TAF

Airports :

Kavala, Greece

Kavala International Airport

latitude: 40-59N, longitude: 024-36E, elevation: 5 m

Current weather observation

The report was made 15 minutes ago, at 13:50 UTC
Wind 5 kt from the Southwest
Temperature 23°C
Humidity 50%
Pressure 1015 hPa
Visibility 10 km or more
no clouds below 1500 m and no cumulonimbus

METAR: LGKV 211350Z 23005KT CAVOK 23/12 Q1015

Time: 17:05 (14:05 UTC)

Forecast

The report was made 3 hours and 5 minutes ago, at 11:00 UTC
Forecast valid from 21 at 12 UTC to 21 at 21 UTC
Wind 10 kt from the South/Southwest
Visibility 10 km or more
Few clouds at a height of 2000 ft
Becoming
from 21 at 16 UTC to 21 at 18 UTC
Wind 5 kt from variable directions

TAF: LGKV 211100Z 2112/2121 21010KT 9999 FEW020 BECMG 2116/2118 VRB05KT

Weather observations and forecasts of more than 4000 airports (METAR and TAF reports).

The available stations are represented by yellow and red dots on the map.

Hover mouse over dot to see the name of the station.

Then click to see weather observations and forecasts.

To change the map : click on the green buttons with a black cross to zoom in, on the green button with a dash to zoom out, or on the green arrows for adjacent maps.


METAR-TAF: